Time;durP1;ratioP1;P1;durP2;ratioP2;P2;SDS_P1;SDS_P2;PMS_P1;PMS_P2;Temp;Humidity;BMP_temperature;BMP_pressure;BME280_temperature;BME280_humidity;BME280_pressure;Samples;Min_cycle;Max_cycle;Signal;HPM_P1;HPM_P2
2022/06/14 00:01:50;;;;;;;7.22;2.33;;;16.70;93.40;;;;;;6940101;28;20104;-79
2022/06/14 00:05:12;;;;;;;6.22;2.25;;;16.70;93.60;;;;;;6939567;28;20119;-79
2022/06/14 00:08:35;;;;;;;10.23;2.70;;;16.70;93.50;;;;;;6946875;28;20088;-79
2022/06/14 00:12:00;;;;;;;10.60;2.40;;;16.60;93.80;;;;;;6945506;28;20499;-79
2022/06/14 00:15:24;;;;;;;6.75;2.47;;;16.60;94.10;;;;;;6945533;28;20381;-79
2022/06/14 00:18:46;;;;;;;5.07;2.30;;;16.60;94.40;;;;;;6946631;28;20084;-79
2022/06/14 00:22:08;;;;;;;6.67;2.43;;;16.60;94.50;;;;;;6945385;28;20495;-79
2022/06/14 00:25:37;;;;;;;6.10;2.20;;;16.60;94.60;;;;;;6945297;28;20383;-80
2022/06/14 00:29:00;;;;;;;4.57;2.42;;;16.60;94.60;;;;;;6945203;28;20049;-79
2022/06/14 00:32:23;;;;;;;5.68;2.13;;;16.60;94.70;;;;;;6943911;28;20092;-78
2022/06/14 00:35:45;;;;;;;6.10;2.20;;;16.40;94.70;;;;;;6944374;28;20044;-79
2022/06/14 00:39:10;;;;;;;6.63;2.67;;;16.30;95.20;;;;;;6945214;28;20081;-79
2022/06/14 00:42:33;;;;;;;5.78;2.20;;;16.30;95.80;;;;;;6945933;28;20045;-79
2022/06/14 00:46:20;;;;;;;4.63;2.50;;;16.20;95.60;;;;;;6944814;28;20085;-79
2022/06/14 00:49:49;;;;;;;7.10;2.50;;;16.20;95.50;;;;;;6941424;28;20080;-80
2022/06/14 00:53:16;;;;;;;5.22;2.40;;;16.10;95.70;;;;;;6942728;28;20049;-80
2022/06/14 00:56:43;;;;;;;5.07;2.45;;;16.00;95.80;;;;;;6945565;28;20134;-79
2022/06/14 01:00:11;;;;;;;6.45;2.40;;;15.90;96.20;;;;;;6944680;28;20085;-79
2022/06/14 01:03:39;;;;;;;4.32;2.30;;;16.00;96.40;;;;;;6944330;28;20046;-79
2022/06/14 01:07:08;;;;;;;5.00;2.42;;;15.90;96.00;;;;;;6944256;28;20056;-79
2022/06/14 01:10:33;;;;;;;7.38;2.80;;;15.70;96.10;;;;;;6945422;28;20080;-79
2022/06/14 01:13:55;;;;;;;6.20;2.53;;;15.50;96.50;;;;;;6943994;28;20060;-79
2022/06/14 01:17:18;;;;;;;7.07;2.23;;;15.50;96.80;;;;;;6944317;28;20077;-79
2022/06/14 01:20:41;;;;;;;6.53;2.53;;;15.50;96.80;;;;;;6944296;28;20139;-78
2022/06/14 01:24:05;;;;;;;5.75;2.60;;;15.50;97.00;;;;;;6944057;28;20522;-79
2022/06/14 01:27:28;;;;;;;5.38;2.13;;;15.50;97.40;;;;;;6943560;28;20144;-80
2022/06/14 01:30:52;;;;;;;;;;;15.50;97.50;;;;;;6944078;28;20594;-77
2022/06/14 01:34:16;;;;;;;5.32;2.15;;;15.60;97.40;;;;;;6943421;28;20031;-79
2022/06/14 01:37:38;;;;;;;5.82;2.25;;;15.50;97.30;;;;;;6943887;28;20041;-78
2022/06/14 01:41:08;;;;;;;5.22;2.38;;;15.50;97.50;;;;;;6936693;28;20069;-80
2022/06/14 01:44:39;;;;;;;5.82;2.80;;;15.40;97.50;;;;;;6944602;28;20052;-79
2022/06/14 01:48:14;;;;;;;6.53;2.50;;;15.30;97.50;;;;;;6941116;28;20042;-79
2022/06/14 01:51:52;;;;;;;5.18;2.38;;;15.20;97.60;;;;;;6940482;28;20084;-78
2022/06/14 01:55:22;;;;;;;6.13;2.25;;;15.10;97.70;;;;;;6943605;28;20136;-80
2022/06/14 01:58:55;;;;;;;4.57;2.40;;;15.00;97.90;;;;;;6942543;28;20068;-79
2022/06/14 02:02:27;;;;;;;4.50;2.40;;;15.00;98.30;;;;;;6942416;28;20058;-77
2022/06/14 02:05:57;;;;;;;6.13;2.50;;;15.00;98.30;;;;;;6942671;28;20049;-78
2022/06/14 02:09:24;;;;;;;5.68;2.50;;;14.90;98.40;;;;;;6943826;28;20064;-79
2022/06/14 02:12:56;;;;;;;6.80;2.60;;;15.00;98.70;;;;;;6942558;28;20088;-78
2022/06/14 02:16:28;;;;;;;5.60;2.15;;;15.00;98.60;;;;;;6942993;28;20139;-80
2022/06/14 02:19:59;;;;;;;6.30;2.45;;;15.10;98.60;;;;;;6942449;28;20045;-79
2022/06/14 02:23:24;;;;;;;4.10;2.22;;;15.10;98.30;;;;;;6940289;28;20107;-80
2022/06/14 02:26:51;;;;;;;6.28;2.58;;;15.00;98.30;;;;;;6943491;28;20138;-80
2022/06/14 02:30:19;;;;;;;4.72;2.38;;;15.00;98.50;;;;;;6939457;28;20086;-80
2022/06/14 02:33:48;;;;;;;5.60;2.38;;;15.00;98.50;;;;;;6942358;28;20075;-80
2022/06/14 02:37:13;;;;;;;5.80;2.33;;;14.90;98.60;;;;;;6940638;28;20088;-78
2022/06/14 02:40:40;;;;;;;4.78;2.38;;;14.80;99.10;;;;;;6943191;28;20056;-79
2022/06/14 02:44:12;;;;;;;5.28;2.67;;;14.70;99.10;;;;;;6945334;28;20045;-79
2022/06/14 02:47:41;;;;;;;5.47;2.72;;;14.70;99.30;;;;;;6939669;28;20080;-80
2022/06/14 02:51:08;;;;;;;6.72;2.10;;;14.80;99.20;;;;;;6939674;28;20160;-80
2022/06/14 02:54:36;;;;;;;5.78;2.30;;;14.70;99.00;;;;;;6913165;28;20479;-79
2022/06/14 02:58:05;;;;;;;4.47;2.50;;;14.60;98.90;;;;;;6934090;28;20045;-78
2022/06/14 03:01:34;;;;;;;6.65;2.40;;;14.60;99.00;;;;;;6939408;28;20103;-79
2022/06/14 03:05:02;;;;;;;4.95;2.38;;;14.50;99.10;;;;;;6944397;28;20131;-78
2022/06/14 03:08:31;;;;;;;6.43;2.08;;;14.30;99.00;;;;;;6929793;28;20049;-79
2022/06/14 03:12:04;;;;;;;5.28;2.63;;;14.20;99.30;;;;;;6943159;28;20088;-79
2022/06/14 03:15:38;;;;;;;6.45;2.50;;;14.20;99.50;;;;;;6919491;28;20080;-80
2022/06/14 03:19:08;;;;;;;6.05;2.65;;;14.20;99.90;;;;;;6940682;28;20077;-80
2022/06/14 03:22:42;;;;;;;8.45;3.00;;;14.20;99.90;;;;;;6944008;28;20171;-78
2022/06/14 03:26:14;;;;;;;5.75;2.33;;;14.20;99.80;;;;;;6942325;28;20092;-78
2022/06/14 03:29:45;;;;;;;4.88;2.53;;;14.10;99.90;;;;;;6939847;28;20042;-79
2022/06/14 03:33:18;;;;;;;4.82;2.38;;;14.10;99.60;;;;;;6939221;28;20045;-78
2022/06/14 03:36:41;;;;;;;6.95;2.65;;;14.10;99.80;;;;;;6940408;28;20050;-80
2022/06/14 03:40:08;;;;;;;7.60;2.47;;;14.10;99.80;;;;;;6933812;28;20044;-79
2022/06/14 03:43:34;;;;;;;7.90;2.92;;;14.10;99.60;;;;;;6940029;28;20069;-78
2022/06/14 03:47:20;;;;;;;6.15;2.58;;;14.10;99.80;;;;;;6940654;28;20070;-79
2022/06/14 03:50:59;;;;;;;4.43;2.40;;;14.10;99.40;;;;;;6939274;28;20073;-78
2022/06/14 03:54:48;;;;;;;5.63;2.45;;;14.10;99.90;;;;;;6941638;28;20601;-79
2022/06/14 03:58:28;;;;;;;6.47;2.65;;;14.10;99.90;;;;;;6939268;28;20091;-79
2022/06/14 04:01:58;;;;;;;6.55;2.17;;;14.10;99.90;;;;;;6940018;28;20084;-79
2022/06/14 04:05:37;;;;;;;4.57;2.10;;;14.10;99.80;;;;;;6909875;28;20127;-79
2022/06/14 04:09:16;;;;;;;6.90;2.78;;;14.00;99.80;;;;;;6938426;28;20084;-80
2022/06/14 04:12:48;;;;;;;6.25;2.28;;;14.00;99.90;;;;;;6914468;28;20049;-80
2022/06/14 04:16:20;;;;;;;4.80;2.63;;;13.90;99.90;;;;;;6940357;28;20045;-78
2022/06/14 04:19:59;;;;;;;6.00;2.30;;;14.00;99.90;;;;;;6939723;28;20100;-78
2022/06/14 04:23:33;;;;;;;5.82;2.70;;;14.10;99.90;;;;;;6939583;28;20049;-79
2022/06/14 04:27:03;;;;;;;6.63;2.80;;;14.10;99.90;;;;;;6926399;28;20568;-77
2022/06/14 04:30:33;;;;;;;5.95;2.65;;;14.20;99.90;;;;;;6887639;28;20089;-78
2022/06/14 04:34:06;;;;;;;6.60;2.70;;;14.20;99.90;;;;;;6887768;28;20050;-78
2022/06/14 04:37:33;;;;;;;;;;;14.20;99.90;;;;;;6899121;28;20107;-77
2022/06/14 04:41:01;;;;;;;5.85;2.65;;;14.20;99.90;;;;;;6914583;28;20382;-77
2022/06/14 04:44:28;;;;;;;7.05;2.63;;;14.10;99.90;;;;;;6914734;28;20515;-77
2022/06/14 04:47:56;;;;;;;6.97;2.70;;;14.00;99.90;;;;;;6914474;28;20182;-78
2022/06/14 04:51:34;;;;;;;6.22;2.97;;;14.00;99.90;;;;;;6915323;28;20077;-80
2022/06/14 04:55:02;;;;;;;6.38;3.10;;;14.10;99.90;;;;;;6919625;28;20101;-79
2022/06/14 04:58:32;;;;;;;9.25;3.17;;;14.20;99.90;;;;;;6919278;28;20151;-80
2022/06/14 05:02:03;;;;;;;7.13;2.92;;;14.20;99.90;;;;;;6918124;28;20092;-79
2022/06/14 05:05:36;;;;;;;6.88;3.35;;;14.20;99.90;;;;;;6919181;28;20046;-79
2022/06/14 05:09:04;;;;;;;6.95;2.90;;;14.20;99.90;;;;;;6919139;28;20527;-78
2022/06/14 05:12:36;;;;;;;8.32;2.88;;;14.30;99.90;;;;;;6918869;28;20093;-79
2022/06/14 05:16:03;;;;;;;5.78;3.08;;;14.40;99.90;;;;;;6918931;28;20117;-80
2022/06/14 05:19:32;;;;;;;7.15;3.42;;;14.50;99.90;;;;;;6918809;28;20139;-78
2022/06/14 05:23:01;;;;;;;6.68;3.17;;;14.50;99.90;;;;;;6918682;28;20710;-79
2022/06/14 05:26:42;;;;;;;6.57;3.80;;;14.60;99.90;;;;;;6918728;28;20057;-79
2022/06/14 05:30:12;;;;;;;6.93;3.70;;;14.70;99.90;;;;;;6918460;28;20053;-80
2022/06/14 05:33:51;;;;;;;8.60;3.50;;;14.70;99.90;;;;;;6918329;28;20515;-78
2022/06/14 05:37:22;;;;;;;7.55;3.38;;;14.70;99.90;;;;;;6920104;28;20061;-78
2022/06/14 05:40:52;;;;;;;6.53;3.08;;;14.80;99.90;;;;;;6921671;28;20085;-80
2022/06/14 05:44:18;;;;;;;7.20;3.10;;;14.90;99.90;;;;;;6918548;28;20512;-79
2022/06/14 05:47:48;;;;;;;8.85;3.40;;;15.00;99.90;;;;;;6916838;28;20092;-79
2022/06/14 05:51:13;;;;;;;7.82;3.15;;;15.20;99.80;;;;;;6918162;28;20105;-80
2022/06/14 05:54:40;;;;;;;6.07;3.10;;;15.20;99.20;;;;;;6917976;28;20077;-80
2022/06/14 05:58:10;;;;;;;7.05;3.30;;;15.30;99.60;;;;;;6917710;28;20046;-79
2022/06/14 06:01:38;;;;;;;6.88;3.78;;;15.30;99.80;;;;;;6917648;28;20046;-79
2022/06/14 06:05:12;;;;;;;6.30;3.40;;;15.40;99.70;;;;;;6916977;28;20049;-78
2022/06/14 06:08:40;;;;;;;8.77;3.30;;;15.40;99.70;;;;;;6919203;28;20500;-79
2022/06/14 06:12:09;;;;;;;6.72;3.42;;;15.50;99.90;;;;;;6917293;28;20081;-79
2022/06/14 06:15:37;;;;;;;8.80;3.35;;;15.50;99.50;;;;;;6917239;28;20519;-80
2022/06/14 06:19:04;;;;;;;9.57;3.63;;;15.60;99.20;;;;;;6917131;28;20077;-79
2022/06/14 06:22:35;;;;;;;9.43;3.40;;;15.70;98.80;;;;;;6917325;28;20088;-80
2022/06/14 06:25:58;;;;;;;6.20;3.53;;;15.70;98.50;;;;;;6917284;28;20050;-78
2022/06/14 06:29:27;;;;;;;8.65;3.22;;;15.70;98.60;;;;;;6916952;28;20092;-79
2022/06/14 06:32:50;;;;;;;10.13;3.72;;;15.80;98.90;;;;;;6917088;28;20053;-79
2022/06/14 06:36:33;;;;;;;7.38;3.33;;;15.90;99.00;;;;;;6916652;28;20042;-79
2022/06/14 06:40:02;;;;;;;7.40;3.55;;;16.00;99.30;;;;;;6916763;28;20046;-80
2022/06/14 06:43:24;;;;;;;9.00;3.50;;;16.10;99.30;;;;;;6915505;28;20480;-80
2022/06/14 06:46:53;;;;;;;8.15;3.72;;;16.20;98.90;;;;;;6916471;28;20132;-79
2022/06/14 06:50:24;;;;;;;7.20;3.65;;;16.10;98.80;;;;;;6916535;28;20050;-79
2022/06/14 06:53:54;;;;;;;10.23;3.63;;;16.20;98.80;;;;;;6916385;28;20084;-79
2022/06/14 06:57:22;;;;;;;8.52;3.70;;;16.30;98.20;;;;;;6916508;28;20085;-79
2022/06/14 07:00:46;;;;;;;10.93;3.58;;;16.30;97.90;;;;;;6916206;28;20053;-79
2022/06/14 07:04:16;;;;;;;8.13;3.42;;;16.30;98.00;;;;;;6916407;28;20352;-80
2022/06/14 07:07:48;;;;;;;7.65;3.58;;;16.50;97.90;;;;;;6916191;28;20087;-77
2022/06/14 07:11:18;;;;;;;9.35;3.70;;;16.60;97.30;;;;;;6915731;28;20131;-78
2022/06/14 07:14:53;;;;;;;9.57;3.70;;;16.70;97.20;;;;;;6915952;28;20085;-79
2022/06/14 07:18:19;;;;;;;7.80;3.55;;;16.80;97.40;;;;;;6916203;28;20073;-78
2022/06/14 07:21:46;;;;;;;8.13;3.75;;;16.80;96.70;;;;;;6915763;28;20104;-80
2022/06/14 07:25:15;;;;;;;8.68;3.40;;;16.90;96.50;;;;;;6915875;28;20053;-78
2022/06/14 07:28:51;;;;;;;7.70;3.30;;;17.00;96.60;;;;;;6915641;28;20078;-77
2022/06/14 07:32:19;;;;;;;10.52;3.50;;;17.10;96.20;;;;;;6915487;28;20057;-78
2022/06/14 07:35:47;;;;;;;7.00;3.00;;;17.10;96.40;;;;;;6915551;28;20076;-78
2022/06/14 07:39:16;;;;;;;8.18;3.30;;;17.20;96.60;;;;;;6915518;28;20124;-79
2022/06/14 07:42:53;;;;;;;8.57;3.50;;;17.20;96.50;;;;;;6915283;28;20053;-80
2022/06/14 07:46:23;;;;;;;9.10;3.83;;;17.40;96.10;;;;;;6915234;28;20050;-79
2022/06/14 07:49:56;;;;;;;8.05;3.95;;;17.50;95.90;;;;;;6915504;28;20065;-79
2022/06/14 07:53:22;;;;;;;7.85;3.50;;;17.50;95.70;;;;;;6915199;28;20081;-78
2022/06/14 07:56:51;;;;;;;9.20;3.33;;;17.60;95.70;;;;;;6915483;28;20046;-78
2022/06/14 08:04:06;;;;;;;9.60;3.53;;;17.80;95.60;;;;;;6915264;28;20057;-79
2022/06/14 08:07:32;;;;;;;9.13;3.55;;;18.00;95.10;;;;;;6914744;28;20148;-79
2022/06/14 08:11:02;;;;;;;10.45;3.72;;;18.00;95.10;;;;;;6914751;28;20046;-77
2022/06/14 08:14:30;;;;;;;8.02;3.40;;;18.10;94.90;;;;;;6914718;28;20050;-79
2022/06/14 08:17:58;;;;;;;8.20;3.72;;;18.20;94.80;;;;;;6914902;28;20042;-79
2022/06/14 08:21:27;;;;;;;9.00;4.03;;;18.20;94.80;;;;;;6914901;28;20053;-79
2022/06/14 08:24:56;;;;;;;7.97;3.55;;;18.30;94.60;;;;;;6915224;28;20080;-79
2022/06/14 08:28:24;;;;;;;14.65;5.85;;;18.40;94.60;;;;;;6922414;28;20053;-79
2022/06/14 08:31:53;;;;;;;8.85;3.35;;;18.50;94.60;;;;;;6925698;28;20046;-78
2022/06/14 08:35:21;;;;;;;10.10;3.67;;;18.60;94.50;;;;;;6920310;28;20081;-78
2022/06/14 08:38:50;;;;;;;8.60;3.50;;;18.60;94.90;;;;;;6919885;28;20096;-79
2022/06/14 08:42:26;;;;;;;18.92;8.88;;;18.70;94.80;;;;;;6919815;28;20109;-78
2022/06/14 08:46:12;;;;;;;12.85;4.28;;;18.80;94.40;;;;;;6919898;28;20111;-79
2022/06/14 08:49:47;;;;;;;8.98;3.88;;;18.90;93.70;;;;;;6919459;28;20054;-80
2022/06/14 08:53:45;;;;;;;10.73;3.83;;;18.90;93.80;;;;;;6919256;28;20053;-79
2022/06/14 08:57:28;;;;;;;10.90;3.80;;;19.00;93.70;;;;;;6919264;28;20081;-79
2022/06/14 09:01:05;;;;;;;7.65;3.58;;;19.00;93.70;;;;;;6919368;28;20049;-77
2022/06/14 09:05:10;;;;;;;10.00;3.95;;;19.20;93.50;;;;;;6919253;28;20097;-78
2022/06/14 09:09:12;;;;;;;10.40;4.18;;;19.30;93.40;;;;;;6916610;28;20053;-78
2022/06/14 09:13:18;;;;;;;9.27;3.90;;;19.40;94.20;;;;;;6918778;28;20511;-79
2022/06/14 09:17:13;;;;;;;8.05;3.58;;;19.50;92.70;;;;;;6919185;28;20092;-80
2022/06/14 09:20:42;;;;;;;8.77;3.88;;;19.50;91.60;;;;;;6919254;28;20053;-80
2022/06/14 09:24:40;;;;;;;6.57;3.53;;;19.60;92.10;;;;;;6928675;28;20050;-79
2022/06/14 09:28:38;;;;;;;7.53;3.30;;;19.70;91.60;;;;;;6929423;28;20061;-79
2022/06/14 09:36:58;;;;;;;10.05;3.45;;;19.90;91.40;;;;;;6917261;28;20042;-80
2022/06/14 09:40:42;;;;;;;7.38;3.00;;;20.00;90.10;;;;;;6917136;28;20112;-79
2022/06/14 09:44:45;;;;;;;7.72;3.33;;;20.00;90.30;;;;;;6918068;28;20085;-79
2022/06/14 09:48:35;;;;;;;8.07;3.28;;;20.10;89.40;;;;;;6919022;28;20476;-79
2022/06/14 09:52:39;;;;;;;7.68;2.92;;;20.20;87.40;;;;;;6919534;28;20500;-78
2022/06/14 09:56:47;;;;;;;6.97;2.88;;;20.40;85.00;;;;;;6918094;28;20096;-80
2022/06/14 10:00:31;;;;;;;8.35;3.15;;;20.40;82.60;;;;;;6893147;28;20101;-79
2022/06/14 10:04:21;;;;;;;6.53;2.40;;;20.60;81.40;;;;;;6917829;28;20077;-79
2022/06/14 10:08:28;;;;;;;7.68;2.65;;;20.60;75.90;;;;;;6917695;28;20081;-76
2022/06/14 10:12:07;;;;;;;5.80;2.85;;;20.60;76.20;;;;;;6907328;28;20061;-79
2022/06/14 10:15:42;;;;;;;7.28;2.55;;;20.70;73.80;;;;;;6917374;28;20046;-79
2022/06/14 10:19:26;;;;;;;8.23;2.63;;;20.70;75.30;;;;;;6917294;28;20125;-79
2022/06/14 10:23:05;;;;;;;7.75;2.70;;;20.80;75.70;;;;;;6917116;28;20081;-77
2022/06/14 10:30:48;;;;;;;8.77;3.13;;;21.00;75.20;;;;;;6917064;28;20054;-79
2022/06/14 10:34:19;;;;;;;8.25;2.45;;;21.00;76.70;;;;;;6916966;28;20081;-80
2022/06/14 10:38:05;;;;;;;7.15;2.90;;;21.10;76.60;;;;;;6919058;28;20049;-78
2022/06/14 10:41:39;;;;;;;8.13;2.88;;;21.10;76.30;;;;;;6921050;28;20065;-77
2022/06/14 10:45:08;;;;;;;7.57;2.75;;;21.20;76.30;;;;;;6919839;28;20046;-77
2022/06/14 10:48:59;;;;;;;7.25;2.60;;;21.30;77.70;;;;;;6921224;28;20092;-79
2022/06/14 10:52:40;;;;;;;7.70;2.92;;;21.30;73.30;;;;;;6916456;28;20109;-79
2022/06/14 10:56:36;;;;;;;7.05;2.85;;;21.40;73.80;;;;;;6916381;28;20088;-79
2022/06/14 11:00:25;;;;;;;6.40;2.53;;;21.60;76.90;;;;;;6911760;28;20052;-80
2022/06/14 11:03:59;;;;;;;7.63;2.80;;;21.60;72.30;;;;;;6915381;28;20057;-80
2022/06/14 11:07:43;;;;;;;6.85;2.50;;;21.70;70.10;;;;;;6920683;28;20428;-79
2022/06/14 11:11:43;;;;;;;8.63;2.60;;;21.70;69.10;;;;;;6917916;28;20041;-79
2022/06/14 11:15:15;;;;;;;5.68;2.47;;;21.70;71.30;;;;;;6927341;28;20052;-77
2022/06/14 11:19:04;;;;;;;7.30;2.80;;;21.80;72.50;;;;;;6919752;28;20046;-80
2022/06/14 11:22:36;;;;;;;5.75;2.70;;;21.90;72.10;;;;;;6916111;28;20046;-78
2022/06/14 11:26:09;;;;;;;5.32;2.50;;;22.00;72.60;;;;;;6915917;28;20408;-79
2022/06/14 11:29:40;;;;;;;8.18;2.97;;;22.00;69.70;;;;;;6916046;28;20101;-77
2022/06/14 11:33:13;;;;;;;9.48;3.97;;;22.10;70.80;;;;;;6915762;28;20049;-80
2022/06/14 11:37:09;;;;;;;8.48;3.80;;;22.20;73.60;;;;;;6915790;28;20488;-78
2022/06/14 11:40:35;;;;;;;5.80;2.65;;;22.40;72.90;;;;;;6915678;28;20050;-81
2022/06/14 11:44:12;;;;;;;7.65;2.60;;;22.40;71.30;;;;;;6915518;28;20570;-80
2022/06/14 11:47:43;;;;;;;6.90;2.80;;;22.50;71.50;;;;;;6915521;28;20484;-79
2022/06/14 11:51:17;;;;;;;7.22;3.00;;;22.60;74.00;;;;;;6915290;28;20128;-80
2022/06/14 11:54:55;;;;;;;8.18;2.58;;;22.80;72.10;;;;;;6915369;28;20112;-79
2022/06/14 11:58:23;;;;;;;8.45;2.65;;;22.80;70.40;;;;;;6915202;28;20419;-79
2022/06/14 12:02:00;;;;;;;6.82;2.45;;;22.90;70.20;;;;;;6916983;28;20054;-79
2022/06/14 12:05:40;;;;;;;8.13;2.72;;;23.00;69.90;;;;;;6920706;28;20089;-79
2022/06/14 12:09:40;;;;;;;5.00;2.45;;;23.00;64.50;;;;;;6920603;28;20050;-80
2022/06/14 12:13:19;;;;;;;6.93;2.67;;;23.10;69.90;;;;;;6905331;28;20069;-79
2022/06/14 12:16:45;;;;;;;5.88;2.25;;;23.30;69.40;;;;;;6920533;28;20394;-80
2022/06/14 12:20:11;;;;;;;8.43;2.53;;;23.50;68.30;;;;;;6920641;28;20100;-79
2022/06/14 12:23:38;;;;;;;6.78;2.47;;;23.50;65.70;;;;;;6920071;28;20054;-79
2022/06/14 12:27:04;;;;;;;6.75;2.70;;;23.60;67.80;;;;;;6920345;28;20443;-79
2022/06/14 12:30:30;;;;;;;5.45;2.28;;;23.70;65.50;;;;;;6920045;28;20057;-79
2022/06/14 12:33:58;;;;;;;7.35;2.42;;;23.80;65.70;;;;;;6919915;28;20101;-80
2022/06/14 12:37:35;;;;;;;5.00;2.60;;;24.00;66.10;;;;;;6920049;28;20700;-78
2022/06/14 12:41:08;;;;;;;8.48;2.60;;;24.20;67.60;;;;;;6919798;28;20081;-79
2022/06/14 12:44:53;;;;;;;7.63;2.70;;;24.40;65.70;;;;;;6919768;28;20109;-79
2022/06/14 12:48:31;;;;;;;6.03;2.50;;;24.40;65.50;;;;;;6919465;28;20200;-77
2022/06/14 12:51:58;;;;;;;9.05;3.20;;;24.60;63.50;;;;;;6919747;28;20046;-80
2022/06/14 12:55:26;;;;;;;7.60;2.97;;;24.70;63.70;;;;;;6919579;28;20440;-76
2022/06/14 12:59:00;;;;;;;6.53;3.28;;;24.80;63.10;;;;;;6919660;28;20399;-78
2022/06/14 13:02:30;;;;;;;8.70;2.83;;;25.00;63.90;;;;;;6919425;28;20088;-78
2022/06/14 13:05:58;;;;;;;7.65;2.65;;;25.20;64.00;;;;;;6918856;28;20082;-79
2022/06/14 13:09:30;;;;;;;6.30;2.78;;;25.30;61.60;;;;;;6918869;28;20100;-79
2022/06/14 13:13:27;;;;;;;5.68;2.28;;;25.50;61.30;;;;;;6918694;28;20065;-79
2022/06/14 13:17:07;;;;;;;6.88;2.63;;;25.60;61.90;;;;;;6919075;28;20088;-77
2022/06/14 13:20:42;;;;;;;5.72;2.30;;;25.80;60.20;;;;;;6918804;28;20057;-79
2022/06/14 13:24:22;;;;;;;7.15;2.75;;;25.90;60.30;;;;;;6918656;28;20057;-78
2022/06/14 13:27:54;;;;;;;5.82;2.45;;;26.10;59.60;;;;;;6918770;28;20046;-76
2022/06/14 13:31:39;;;;;;;5.80;2.50;;;26.30;60.00;;;;;;6918454;28;20088;-79
2022/06/14 13:35:28;;;;;;;5.55;2.75;;;26.40;60.50;;;;;;6918635;28;20542;-81
2022/06/14 13:38:54;;;;;;;6.00;2.40;;;26.50;58.00;;;;;;6918433;28;20054;-78
2022/06/14 13:42:28;;;;;;;5.32;2.13;;;26.80;58.40;;;;;;6918258;28;20046;-78
2022/06/14 13:45:59;;;;;;;3.97;2.30;;;26.90;57.40;;;;;;6918322;28;20050;-79
2022/06/14 13:49:31;;;;;;;6.17;2.30;;;27.10;55.30;;;;;;6918071;28;20105;-79
2022/06/14 13:53:01;;;;;;;8.27;3.28;;;27.10;56.30;;;;;;6918071;28;20455;-81
2022/06/14 13:56:30;;;;;;;7.57;2.53;;;27.40;56.20;;;;;;6918222;28;20081;-78
2022/06/14 13:59:57;;;;;;;6.82;2.40;;;27.60;54.00;;;;;;6922825;28;20141;-79
2022/06/14 14:03:39;;;;;;;4.72;1.98;;;27.70;55.80;;;;;;6926265;28;20054;-78
2022/06/14 14:07:16;;;;;;;7.13;2.47;;;27.90;53.80;;;;;;6917940;28;20220;-79
2022/06/14 14:10:48;;;;;;;6.55;2.55;;;28.10;53.30;;;;;;6917684;28;20104;-79
2022/06/14 14:14:20;;;;;;;;;;;28.10;53.60;;;;;;6917828;28;20093;-77
2022/06/14 14:17:51;;;;;;;5.65;2.28;;;28.10;53.10;;;;;;6917361;28;19980;-79
2022/06/14 14:21:20;;;;;;;7.10;2.20;;;28.20;52.80;;;;;;6917423;28;20061;-80
2022/06/14 14:24:50;;;;;;;4.65;2.50;;;28.30;53.40;;;;;;6916381;28;20523;-79
2022/06/14 14:28:22;;;;;;;4.15;1.88;;;28.60;52.80;;;;;;6917148;28;20093;-79
2022/06/14 14:31:53;;;;;;;5.20;2.33;;;28.70;50.00;;;;;;6917101;28;20046;-80
2022/06/14 14:35:23;;;;;;;5.78;2.00;;;28.40;51.20;;;;;;6916832;28;20057;-79
2022/06/14 14:38:53;;;;;;;6.03;2.20;;;28.60;51.40;;;;;;6916795;28;20139;-80
2022/06/14 14:42:23;;;;;;;5.95;2.17;;;28.60;50.70;;;;;;6917012;28;20100;-80
2022/06/14 14:45:49;;;;;;;5.63;2.08;;;28.60;51.30;;;;;;6916447;28;20081;-79
2022/06/14 14:49:18;;;;;;;5.53;2.20;;;28.90;51.30;;;;;;6916540;28;20092;-79
2022/06/14 14:52:48;;;;;;;5.75;2.20;;;29.10;49.80;;;;;;6916434;28;20085;-77
2022/06/14 14:56:18;;;;;;;5.10;2.03;;;29.40;49.60;;;;;;6924037;28;20041;-77
2022/06/14 14:59:47;;;;;;;5.40;1.65;;;29.20;51.40;;;;;;6939847;28;20061;-78
2022/06/14 15:07:08;;;;;;;6.07;2.10;;;30.00;51.60;;;;;;6925458;28;20136;-78
2022/06/14 15:10:55;;;;;;;5.65;2.60;;;30.10;48.40;;;;;;6940211;28;20053;-77
2022/06/14 15:14:23;;;;;;;9.27;4.38;;;30.20;47.90;;;;;;6939541;28;20111;-79
2022/06/14 15:21:33;;;;;;;6.80;2.35;;;30.60;48.10;;;;;;6939541;28;20053;-81
2022/06/14 15:24:59;;;;;;;5.30;1.90;;;31.00;49.60;;;;;;6936650;28;20419;-77
2022/06/14 15:28:24;;;;;;;4.90;2.20;;;31.10;48.00;;;;;;6939829;28;20558;-76
2022/06/14 15:31:56;;;;;;;3.92;1.80;;;30.90;47.10;;;;;;6908197;28;20064;-76
2022/06/14 15:35:22;;;;;;;4.45;1.90;;;30.70;48.10;;;;;;6901252;28;20046;-79
2022/06/14 15:38:54;;;;;;;4.88;1.90;;;30.30;47.70;;;;;;6929748;28;20596;-79
2022/06/14 15:42:24;;;;;;;;;;;30.50;47.60;;;;;;6932739;28;20053;-77
2022/06/14 15:45:50;;;;;;;5.77;1.90;;;30.70;46.20;;;;;;6915869;28;20375;-78
2022/06/14 15:49:15;;;;;;;7.80;2.03;;;30.60;46.00;;;;;;6940353;28;20306;-76
2022/06/14 15:52:39;;;;;;;4.88;1.80;;;30.60;47.00;;;;;;6920245;28;20050;-78
2022/06/14 15:56:02;;;;;;;4.63;1.80;;;30.90;45.10;;;;;;6917128;28;20181;-77
2022/06/14 15:59:29;;;;;;;4.20;1.67;;;31.40;44.40;;;;;;6915025;28;20085;-77
2022/06/14 16:02:59;;;;;;;5.40;1.60;;;31.50;45.60;;;;;;6915399;28;20050;-78
2022/06/14 16:06:32;;;;;;;5.20;1.75;;;31.70;44.10;;;;;;6933974;28;20045;-78
2022/06/14 16:09:59;;;;;;;5.53;1.83;;;31.40;45.60;;;;;;6944190;28;20507;-77
2022/06/14 16:13:26;;;;;;;5.38;1.90;;;31.30;47.30;;;;;;6942906;28;20127;-78
2022/06/14 16:17:07;;;;;;;3.88;1.70;;;30.90;46.00;;;;;;6917152;28;20049;-78
2022/06/14 16:20:33;;;;;;;5.68;1.70;;;30.80;46.90;;;;;;6914559;28;20088;-78
2022/06/14 16:23:56;;;;;;;6.07;1.80;;;31.00;46.90;;;;;;6937308;28;20042;-77
2022/06/14 16:27:42;;;;;;;4.07;1.50;;;31.00;47.50;;;;;;6931549;28;20053;-77
2022/06/14 16:31:15;;;;;;;5.05;1.80;;;31.00;46.70;;;;;;6926177;28;20172;-78
2022/06/14 16:34:45;;;;;;;3.70;1.65;;;31.10;45.70;;;;;;6923635;28;20076;-77
2022/06/14 16:38:32;;;;;;;3.83;1.60;;;31.10;45.80;;;;;;6887438;28;20386;-76
2022/06/14 16:42:09;;;;;;;3.63;1.60;;;31.10;43.70;;;;;;6887744;28;20054;-78
2022/06/14 16:45:37;;;;;;;3.80;1.60;;;30.60;44.70;;;;;;6906832;28;20049;-78
2022/06/14 16:49:14;;;;;;;3.45;1.90;;;30.70;46.00;;;;;;6947040;28;20124;-77
2022/06/14 16:52:50;;;;;;;6.18;2.22;;;30.70;46.10;;;;;;6897325;28;20437;-77
2022/06/14 16:56:23;;;;;;;4.80;1.70;;;30.50;46.80;;;;;;6916699;28;20081;-76
2022/06/14 16:59:53;;;;;;;4.65;1.60;;;30.70;48.40;;;;;;6947492;28;20045;-76
2022/06/14 17:03:23;;;;;;;6.30;1.63;;;30.80;47.10;;;;;;6937300;28;20176;-78
2022/06/14 17:06:58;;;;;;;3.40;1.60;;;30.90;46.30;;;;;;6937197;28;20088;-78
2022/06/14 17:10:34;;;;;;;4.32;1.80;;;30.80;46.30;;;;;;6945739;28;20503;-79
2022/06/14 17:14:03;;;;;;;5.85;1.63;;;30.70;45.60;;;;;;6924948;28;20081;-76
2022/06/14 17:17:34;;;;;;;5.00;1.65;;;30.80;43.90;;;;;;6919265;28;20085;-77
2022/06/14 17:21:09;;;;;;;4.65;1.73;;;30.80;45.20;;;;;;6927154;28;20064;-77
2022/06/14 17:24:43;;;;;;;5.88;1.60;;;30.90;45.80;;;;;;6930354;28;20093;-76
2022/06/14 17:31:50;;;;;;;5.35;1.88;;;30.80;45.70;;;;;;6933328;28;20054;-78
2022/06/14 17:35:17;;;;;;;3.58;1.45;;;30.90;47.10;;;;;;6921783;28;20108;-76
2022/06/14 17:38:44;;;;;;;5.28;1.45;;;30.80;47.20;;;;;;6919260;28;20053;-80
2022/06/14 17:42:15;;;;;;;5.45;2.00;;;30.70;46.20;;;;;;6931662;28;20058;-79
2022/06/14 17:45:42;;;;;;;4.57;1.80;;;30.60;47.00;;;;;;6925791;28;20046;-77
2022/06/14 17:49:13;;;;;;;6.95;2.40;;;30.60;47.70;;;;;;6925902;28;20038;-80
2022/06/14 17:52:41;;;;;;;;;;;30.40;48.70;;;;;;6919189;28;20431;-78
2022/06/14 17:56:10;;;;;;;4.25;1.50;;;30.40;48.20;;;;;;6931226;28;19928;-77
2022/06/14 18:00:08;;;;;;;4.05;1.80;;;30.30;49.20;;;;;;6942677;28;20064;-77
2022/06/14 18:03:36;;;;;;;4.68;1.77;;;30.40;50.10;;;;;;6944409;28;20503;-78
2022/06/14 18:07:03;;;;;;;4.70;1.85;;;30.10;49.80;;;;;;6945558;28;20060;-78
2022/06/14 18:10:36;;;;;;;3.88;1.70;;;30.10;50.00;;;;;;6932704;28;20510;-77
2022/06/14 18:14:01;;;;;;;5.30;2.00;;;30.00;50.30;;;;;;6923474;28;20107;-79
2022/06/14 18:17:34;;;;;;;4.15;1.73;;;29.70;49.70;;;;;;6937847;28;20053;-82
2022/06/14 18:21:02;;;;;;;4.10;1.80;;;29.40;51.10;;;;;;6926891;28;20054;-79
2022/06/14 18:24:55;;;;;;;4.72;1.75;;;29.30;52.10;;;;;;6932300;28;20049;-79
2022/06/14 18:28:23;;;;;;;4.78;1.67;;;29.00;52.10;;;;;;6923263;28;20053;-79
2022/06/14 18:31:51;;;;;;;4.32;1.55;;;28.70;52.40;;;;;;6938600;28;20052;-79
2022/06/14 18:35:16;;;;;;;4.10;1.95;;;28.70;52.60;;;;;;6917210;28;20081;-78
2022/06/14 18:38:44;;;;;;;6.90;2.40;;;28.40;52.80;;;;;;6935069;28;20041;-77
2022/06/14 18:43:10;;;;;;;38.70;21.08;;;28.30;53.10;;;;;;6912379;28;20092;-80
2022/06/14 18:46:35;;;;;;;9.13;3.58;;;28.10;61.90;;;;;;6888580;28;20462;-81
2022/06/14 18:50:08;;;;;;;6.63;2.83;;;27.70;61.00;;;;;;6937680;28;20077;-78
2022/06/14 18:53:35;;;;;;;4.75;1.80;;;27.60;58.90;;;;;;6938290;28;20411;-79